sensor_id;sensor_type;location;lat;lon;timestamp;P1;durP1;ratioP1;P2;durP2;ratioP2
18194;SDS011;9223;50.988;3.162;2022-11-20T00:02:03;28.83;;;16.17;;
18194;SDS011;9223;50.988;3.162;2022-11-20T00:08:07;29.45;;;15.65;;
18194;SDS011;9223;50.988;3.162;2022-11-20T00:14:12;31.80;;;16.73;;
18194;SDS011;9223;50.988;3.162;2022-11-20T00:20:15;31.52;;;15.32;;
18194;SDS011;9223;50.988;3.162;2022-11-20T00:26:19;30.83;;;15.52;;
18194;SDS011;9223;50.988;3.162;2022-11-20T00:32:24;31.75;;;16.58;;
18194;SDS011;9223;50.988;3.162;2022-11-20T00:38:28;34.40;;;16.98;;
18194;SDS011;9223;50.988;3.162;2022-11-20T00:44:31;33.35;;;16.55;;
18194;SDS011;9223;50.988;3.162;2022-11-20T00:50:36;73.05;;;29.52;;
18194;SDS011;9223;50.988;3.162;2022-11-20T00:56:39;391.08;;;120.10;;
18194;SDS011;9223;50.988;3.162;2022-11-20T01:02:43;40.42;;;19.50;;
18194;SDS011;9223;50.988;3.162;2022-11-20T01:08:48;210.57;;;67.57;;
18194;SDS011;9223;50.988;3.162;2022-11-20T01:14:51;41.38;;;20.38;;
18194;SDS011;9223;50.988;3.162;2022-11-20T01:20:54;185.82;;;54.13;;
18194;SDS011;9223;50.988;3.162;2022-11-20T01:26:59;115.65;;;43.92;;
18194;SDS011;9223;50.988;3.162;2022-11-20T01:33:03;41.72;;;22.35;;
18194;SDS011;9223;50.988;3.162;2022-11-20T01:39:06;40.03;;;20.83;;
18194;SDS011;9223;50.988;3.162;2022-11-20T01:51:35;36.90;;;17.75;;
18194;SDS011;9223;50.988;3.162;2022-11-20T01:57:41;35.38;;;18.08;;
18194;SDS011;9223;50.988;3.162;2022-11-20T02:03:44;40.55;;;19.13;;
18194;SDS011;9223;50.988;3.162;2022-11-20T02:09:49;39.10;;;19.17;;
18194;SDS011;9223;50.988;3.162;2022-11-20T02:15:59;47.17;;;22.13;;
18194;SDS011;9223;50.988;3.162;2022-11-20T02:22:04;51.13;;;22.88;;
18194;SDS011;9223;50.988;3.162;2022-11-20T02:28:10;53.63;;;22.30;;
18194;SDS011;9223;50.988;3.162;2022-11-20T02:34:13;61.28;;;25.45;;
18194;SDS011;9223;50.988;3.162;2022-11-20T02:40:17;64.88;;;28.98;;
18194;SDS011;9223;50.988;3.162;2022-11-20T02:46:22;58.17;;;23.77;;
18194;SDS011;9223;50.988;3.162;2022-11-20T02:52:25;50.25;;;21.77;;
18194;SDS011;9223;50.988;3.162;2022-11-20T02:58:29;54.78;;;23.98;;
18194;SDS011;9223;50.988;3.162;2022-11-20T03:04:35;58.08;;;23.55;;
18194;SDS011;9223;50.988;3.162;2022-11-20T03:10:38;61.45;;;24.27;;
18194;SDS011;9223;50.988;3.162;2022-11-20T03:16:42;67.00;;;25.23;;
18194;SDS011;9223;50.988;3.162;2022-11-20T03:22:47;58.88;;;25.98;;
18194;SDS011;9223;50.988;3.162;2022-11-20T03:28:50;60.00;;;24.15;;
18194;SDS011;9223;50.988;3.162;2022-11-20T03:34:54;48.50;;;21.23;;
18194;SDS011;9223;50.988;3.162;2022-11-20T03:41:00;53.13;;;22.50;;
18194;SDS011;9223;50.988;3.162;2022-11-20T03:47:04;51.55;;;21.83;;
18194;SDS011;9223;50.988;3.162;2022-11-20T03:53:07;61.28;;;23.52;;
18194;SDS011;9223;50.988;3.162;2022-11-20T03:59:12;52.45;;;22.02;;
18194;SDS011;9223;50.988;3.162;2022-11-20T04:05:16;51.92;;;21.92;;
18194;SDS011;9223;50.988;3.162;2022-11-20T04:11:20;52.33;;;22.08;;
18194;SDS011;9223;50.988;3.162;2022-11-20T04:17:25;54.15;;;23.23;;
18194;SDS011;9223;50.988;3.162;2022-11-20T04:23:28;52.03;;;22.52;;
18194;SDS011;9223;50.988;3.162;2022-11-20T04:29:32;51.60;;;22.10;;
18194;SDS011;9223;50.988;3.162;2022-11-20T04:35:37;51.50;;;22.27;;
18194;SDS011;9223;50.988;3.162;2022-11-20T04:41:40;52.97;;;21.95;;
18194;SDS011;9223;50.988;3.162;2022-11-20T04:47:44;50.58;;;21.15;;
18194;SDS011;9223;50.988;3.162;2022-11-20T04:53:49;45.13;;;20.20;;
18194;SDS011;9223;50.988;3.162;2022-11-20T04:59:52;35.10;;;16.42;;
18194;SDS011;9223;50.988;3.162;2022-11-20T05:05:56;37.40;;;17.40;;
18194;SDS011;9223;50.988;3.162;2022-11-20T05:12:04;35.67;;;16.88;;
18194;SDS011;9223;50.988;3.162;2022-11-20T05:18:07;34.67;;;16.65;;
18194;SDS011;9223;50.988;3.162;2022-11-20T05:24:11;35.63;;;16.35;;
18194;SDS011;9223;50.988;3.162;2022-11-20T05:30:15;34.60;;;16.63;;
18194;SDS011;9223;50.988;3.162;2022-11-20T05:36:19;31.15;;;15.82;;
18194;SDS011;9223;50.988;3.162;2022-11-20T05:42:22;35.38;;;16.75;;
18194;SDS011;9223;50.988;3.162;2022-11-20T05:48:37;39.33;;;16.23;;
18194;SDS011;9223;50.988;3.162;2022-11-20T05:54:41;37.15;;;16.35;;
18194;SDS011;9223;50.988;3.162;2022-11-20T06:00:44;37.83;;;17.00;;
18194;SDS011;9223;50.988;3.162;2022-11-20T06:06:49;43.78;;;17.60;;
18194;SDS011;9223;50.988;3.162;2022-11-20T06:12:52;34.08;;;16.52;;
18194;SDS011;9223;50.988;3.162;2022-11-20T06:18:55;42.88;;;18.45;;
18194;SDS011;9223;50.988;3.162;2022-11-20T06:25:00;31.50;;;16.00;;
18194;SDS011;9223;50.988;3.162;2022-11-20T06:31:04;34.55;;;15.85;;
18194;SDS011;9223;50.988;3.162;2022-11-20T06:37:08;34.55;;;16.88;;
18194;SDS011;9223;50.988;3.162;2022-11-20T06:43:12;38.28;;;17.20;;
18194;SDS011;9223;50.988;3.162;2022-11-20T06:49:18;39.28;;;17.00;;
18194;SDS011;9223;50.988;3.162;2022-11-20T06:55:22;40.60;;;17.60;;
18194;SDS011;9223;50.988;3.162;2022-11-20T07:01:26;44.08;;;17.75;;
18194;SDS011;9223;50.988;3.162;2022-11-20T07:07:30;45.47;;;18.38;;
18194;SDS011;9223;50.988;3.162;2022-11-20T07:13:33;40.35;;;17.27;;
18194;SDS011;9223;50.988;3.162;2022-11-20T07:19:38;35.10;;;17.10;;
18194;SDS011;9223;50.988;3.162;2022-11-20T07:25:41;40.72;;;17.27;;
18194;SDS011;9223;50.988;3.162;2022-11-20T07:31:45;33.33;;;15.63;;
18194;SDS011;9223;50.988;3.162;2022-11-20T07:37:50;36.85;;;15.40;;
18194;SDS011;9223;50.988;3.162;2022-11-20T07:43:53;30.95;;;15.38;;
18194;SDS011;9223;50.988;3.162;2022-11-20T07:49:56;31.70;;;14.60;;
18194;SDS011;9223;50.988;3.162;2022-11-20T07:56:01;32.22;;;13.82;;
18194;SDS011;9223;50.988;3.162;2022-11-20T08:02:05;32.17;;;14.95;;
18194;SDS011;9223;50.988;3.162;2022-11-20T08:08:08;23.60;;;12.40;;
18194;SDS011;9223;50.988;3.162;2022-11-20T08:14:13;33.72;;;13.80;;
18194;SDS011;9223;50.988;3.162;2022-11-20T08:20:17;28.00;;;13.60;;
18194;SDS011;9223;50.988;3.162;2022-11-20T08:26:20;30.67;;;15.73;;
18194;SDS011;9223;50.988;3.162;2022-11-20T08:32:25;29.42;;;14.07;;
18194;SDS011;9223;50.988;3.162;2022-11-20T08:38:29;29.42;;;14.05;;
18194;SDS011;9223;50.988;3.162;2022-11-20T08:44:32;26.40;;;13.07;;
18194;SDS011;9223;50.988;3.162;2022-11-20T08:50:37;29.02;;;14.05;;
18194;SDS011;9223;50.988;3.162;2022-11-20T08:56:40;27.38;;;13.70;;
18194;SDS011;9223;50.988;3.162;2022-11-20T09:02:44;22.80;;;11.77;;
18194;SDS011;9223;50.988;3.162;2022-11-20T09:08:52;18.45;;;10.77;;
18194;SDS011;9223;50.988;3.162;2022-11-20T09:14:55;16.50;;;10.73;;
18194;SDS011;9223;50.988;3.162;2022-11-20T09:20:59;15.98;;;9.27;;
18194;SDS011;9223;50.988;3.162;2022-11-20T09:27:04;16.48;;;9.63;;
18194;SDS011;9223;50.988;3.162;2022-11-20T09:33:08;13.68;;;8.10;;
18194;SDS011;9223;50.988;3.162;2022-11-20T09:39:11;11.85;;;7.88;;
18194;SDS011;9223;50.988;3.162;2022-11-20T09:45:18;11.93;;;5.53;;
18194;SDS011;9223;50.988;3.162;2022-11-20T09:51:26;7.68;;;5.13;;
18194;SDS011;9223;50.988;3.162;2022-11-20T09:57:32;7.25;;;4.80;;
18194;SDS011;9223;50.988;3.162;2022-11-20T10:03:39;6.93;;;4.18;;
18194;SDS011;9223;50.988;3.162;2022-11-20T10:09:48;4.38;;;3.17;;
18194;SDS011;9223;50.988;3.162;2022-11-20T10:15:55;7.38;;;3.22;;
18194;SDS011;9223;50.988;3.162;2022-11-20T10:22:06;4.50;;;3.05;;
18194;SDS011;9223;50.988;3.162;2022-11-20T10:28:19;7.32;;;3.00;;
18194;SDS011;9223;50.988;3.162;2022-11-20T10:34:25;7.53;;;3.55;;
18194;SDS011;9223;50.988;3.162;2022-11-20T10:40:34;7.53;;;3.47;;
18194;SDS011;9223;50.988;3.162;2022-11-20T10:46:39;5.53;;;3.20;;
18194;SDS011;9223;50.988;3.162;2022-11-20T10:52:46;6.22;;;2.90;;
18194;SDS011;9223;50.988;3.162;2022-11-20T10:58:58;3.67;;;2.75;;
18194;SDS011;9223;50.988;3.162;2022-11-20T11:05:06;6.53;;;3.20;;
18194;SDS011;9223;50.988;3.162;2022-11-20T11:11:20;5.75;;;3.28;;
18194;SDS011;9223;50.988;3.162;2022-11-20T11:17:27;9.10;;;3.53;;
18194;SDS011;9223;50.988;3.162;2022-11-20T11:23:31;4.20;;;2.83;;
18194;SDS011;9223;50.988;3.162;2022-11-20T11:29:35;4.22;;;2.90;;
18194;SDS011;9223;50.988;3.162;2022-11-20T11:35:44;7.43;;;3.00;;
18194;SDS011;9223;50.988;3.162;2022-11-20T11:41:51;6.03;;;3.30;;
18194;SDS011;9223;50.988;3.162;2022-11-20T11:47:56;4.55;;;3.35;;
18194;SDS011;9223;50.988;3.162;2022-11-20T11:54:01;5.90;;;4.30;;
18194;SDS011;9223;50.988;3.162;2022-11-20T12:00:09;6.95;;;4.32;;
18194;SDS011;9223;50.988;3.162;2022-11-20T12:06:13;5.32;;;3.97;;
18194;SDS011;9223;50.988;3.162;2022-11-20T12:12:20;5.22;;;3.78;;
18194;SDS011;9223;50.988;3.162;2022-11-20T12:18:25;3.55;;;3.25;;
18194;SDS011;9223;50.988;3.162;2022-11-20T12:24:36;3.85;;;3.00;;
18194;SDS011;9223;50.988;3.162;2022-11-20T12:30:46;2.67;;;2.40;;
18194;SDS011;9223;50.988;3.162;2022-11-20T12:36:53;5.60;;;2.88;;
18194;SDS011;9223;50.988;3.162;2022-11-20T12:43:01;3.30;;;1.70;;
18194;SDS011;9223;50.988;3.162;2022-11-20T12:49:28;4.75;;;2.42;;
18194;SDS011;9223;50.988;3.162;2022-11-20T12:55:42;7.78;;;4.65;;
18194;SDS011;9223;50.988;3.162;2022-11-20T13:01:49;5.03;;;3.22;;
18194;SDS011;9223;50.988;3.162;2022-11-20T13:07:55;4.13;;;3.10;;
18194;SDS011;9223;50.988;3.162;2022-11-20T13:14:04;2.70;;;2.30;;
18194;SDS011;9223;50.988;3.162;2022-11-20T13:20:13;2.58;;;2.20;;
18194;SDS011;9223;50.988;3.162;2022-11-20T13:26:19;3.55;;;2.15;;
18194;SDS011;9223;50.988;3.162;2022-11-20T13:32:23;3.65;;;2.78;;
18194;SDS011;9223;50.988;3.162;2022-11-20T13:38:27;4.25;;;2.70;;
18194;SDS011;9223;50.988;3.162;2022-11-20T13:44:37;2.53;;;2.30;;
18194;SDS011;9223;50.988;3.162;2022-11-20T13:50:44;4.70;;;2.90;;
18194;SDS011;9223;50.988;3.162;2022-11-20T13:56:54;5.15;;;2.58;;
18194;SDS011;9223;50.988;3.162;2022-11-20T14:03:06;3.92;;;2.72;;
18194;SDS011;9223;50.988;3.162;2022-11-20T14:09:24;9.75;;;2.92;;
18194;SDS011;9223;50.988;3.162;2022-11-20T14:15:28;5.60;;;2.40;;
18194;SDS011;9223;50.988;3.162;2022-11-20T14:21:33;5.80;;;2.45;;
18194;SDS011;9223;50.988;3.162;2022-11-20T14:27:38;6.18;;;2.03;;
18194;SDS011;9223;50.988;3.162;2022-11-20T14:33:42;7.85;;;2.72;;
18194;SDS011;9223;50.988;3.162;2022-11-20T14:39:49;8.25;;;1.95;;
18194;SDS011;9223;50.988;3.162;2022-11-20T14:45:57;6.95;;;1.77;;
18194;SDS011;9223;50.988;3.162;2022-11-20T14:52:02;3.50;;;1.83;;
18194;SDS011;9223;50.988;3.162;2022-11-20T14:58:20;4.25;;;2.08;;
18194;SDS011;9223;50.988;3.162;2022-11-20T15:04:24;8.45;;;2.40;;
18194;SDS011;9223;50.988;3.162;2022-11-20T15:10:28;4.63;;;1.88;;
18194;SDS011;9223;50.988;3.162;2022-11-20T15:16:32;4.82;;;1.92;;
18194;SDS011;9223;50.988;3.162;2022-11-20T15:22:36;7.90;;;2.00;;
18194;SDS011;9223;50.988;3.162;2022-11-20T15:28:40;11.90;;;2.05;;
18194;SDS011;9223;50.988;3.162;2022-11-20T15:34:45;6.03;;;1.75;;
18194;SDS011;9223;50.988;3.162;2022-11-20T15:40:49;13.85;;;2.28;;
18194;SDS011;9223;50.988;3.162;2022-11-20T15:46:53;9.70;;;1.85;;
18194;SDS011;9223;50.988;3.162;2022-11-20T15:52:57;9.43;;;2.20;;
18194;SDS011;9223;50.988;3.162;2022-11-20T15:59:01;8.02;;;2.40;;
18194;SDS011;9223;50.988;3.162;2022-11-20T16:05:05;10.98;;;2.38;;
18194;SDS011;9223;50.988;3.162;2022-11-20T16:11:15;9.00;;;2.20;;
18194;SDS011;9223;50.988;3.162;2022-11-20T16:17:19;9.68;;;1.95;;
18194;SDS011;9223;50.988;3.162;2022-11-20T16:23:42;13.35;;;4.95;;
18194;SDS011;9223;50.988;3.162;2022-11-20T16:29:47;9.20;;;3.25;;
18194;SDS011;9223;50.988;3.162;2022-11-20T16:35:50;11.82;;;2.85;;
18194;SDS011;9223;50.988;3.162;2022-11-20T16:41:54;9.27;;;3.80;;
18194;SDS011;9223;50.988;3.162;2022-11-20T16:47:58;12.60;;;3.33;;
18194;SDS011;9223;50.988;3.162;2022-11-20T16:54:02;15.25;;;4.63;;
18194;SDS011;9223;50.988;3.162;2022-11-20T17:00:06;9.18;;;3.80;;
18194;SDS011;9223;50.988;3.162;2022-11-20T17:06:12;14.32;;;6.50;;
18194;SDS011;9223;50.988;3.162;2022-11-20T17:12:15;13.32;;;5.55;;
18194;SDS011;9223;50.988;3.162;2022-11-20T17:18:19;12.30;;;4.68;;
18194;SDS011;9223;50.988;3.162;2022-11-20T17:24:24;10.52;;;3.10;;
18194;SDS011;9223;50.988;3.162;2022-11-20T17:30:32;9.80;;;3.10;;
18194;SDS011;9223;50.988;3.162;2022-11-20T17:36:36;12.35;;;3.70;;
18194;SDS011;9223;50.988;3.162;2022-11-20T17:42:46;8.52;;;3.80;;
18194;SDS011;9223;50.988;3.162;2022-11-20T17:48:50;12.48;;;3.38;;
18194;SDS011;9223;50.988;3.162;2022-11-20T17:54:53;8.35;;;3.33;;
18194;SDS011;9223;50.988;3.162;2022-11-20T18:01:04;13.48;;;4.13;;
18194;SDS011;9223;50.988;3.162;2022-11-20T18:07:08;13.38;;;4.10;;
18194;SDS011;9223;50.988;3.162;2022-11-20T18:13:11;10.05;;;4.95;;
18194;SDS011;9223;50.988;3.162;2022-11-20T18:19:16;8.13;;;4.55;;
18194;SDS011;9223;50.988;3.162;2022-11-20T18:25:20;16.20;;;5.57;;
18194;SDS011;9223;50.988;3.162;2022-11-20T18:31:23;15.40;;;5.07;;
18194;SDS011;9223;50.988;3.162;2022-11-20T18:37:29;13.88;;;5.65;;
18194;SDS011;9223;50.988;3.162;2022-11-20T18:43:33;10.40;;;3.67;;
18194;SDS011;9223;50.988;3.162;2022-11-20T18:49:54;10.45;;;3.22;;
18194;SDS011;9223;50.988;3.162;2022-11-20T18:55:59;10.95;;;4.47;;
18194;SDS011;9223;50.988;3.162;2022-11-20T19:02:05;10.85;;;3.95;;
18194;SDS011;9223;50.988;3.162;2022-11-20T19:08:08;10.07;;;4.20;;
18194;SDS011;9223;50.988;3.162;2022-11-20T19:14:13;12.48;;;5.55;;
18194;SDS011;9223;50.988;3.162;2022-11-20T19:20:17;12.65;;;5.35;;
18194;SDS011;9223;50.988;3.162;2022-11-20T19:26:21;9.90;;;3.80;;
18194;SDS011;9223;50.988;3.162;2022-11-20T19:32:25;13.00;;;3.30;;
18194;SDS011;9223;50.988;3.162;2022-11-20T19:38:29;13.93;;;3.05;;
18194;SDS011;9223;50.988;3.162;2022-11-20T19:44:32;7.65;;;3.22;;
18194;SDS011;9223;50.988;3.162;2022-11-20T19:50:38;6.35;;;2.75;;
18194;SDS011;9223;50.988;3.162;2022-11-20T19:56:41;9.40;;;2.88;;
18194;SDS011;9223;50.988;3.162;2022-11-20T20:02:45;8.02;;;2.78;;
18194;SDS011;9223;50.988;3.162;2022-11-20T20:08:54;9.30;;;3.05;;
18194;SDS011;9223;50.988;3.162;2022-11-20T20:14:57;9.40;;;3.40;;
18194;SDS011;9223;50.988;3.162;2022-11-20T20:21:01;8.75;;;2.70;;
18194;SDS011;9223;50.988;3.162;2022-11-20T20:27:06;10.30;;;3.72;;
18194;SDS011;9223;50.988;3.162;2022-11-20T20:33:10;9.25;;;4.10;;
18194;SDS011;9223;50.988;3.162;2022-11-20T20:39:14;6.85;;;2.38;;
18194;SDS011;9223;50.988;3.162;2022-11-20T20:45:19;5.75;;;2.00;;
18194;SDS011;9223;50.988;3.162;2022-11-20T20:51:22;6.40;;;1.95;;
18194;SDS011;9223;50.988;3.162;2022-11-20T20:57:26;4.97;;;1.52;;
18194;SDS011;9223;50.988;3.162;2022-11-20T21:03:32;3.38;;;1.33;;
18194;SDS011;9223;50.988;3.162;2022-11-20T21:09:35;3.42;;;1.00;;
18194;SDS011;9223;50.988;3.162;2022-11-20T21:15:39;2.78;;;1.30;;
18194;SDS011;9223;50.988;3.162;2022-11-20T21:21:44;4.50;;;1.50;;
18194;SDS011;9223;50.988;3.162;2022-11-20T21:28:00;3.30;;;1.20;;
18194;SDS011;9223;50.988;3.162;2022-11-20T21:34:03;4.35;;;1.23;;
18194;SDS011;9223;50.988;3.162;2022-11-20T21:40:10;1.88;;;0.98;;
18194;SDS011;9223;50.988;3.162;2022-11-20T21:46:14;3.63;;;1.20;;
18194;SDS011;9223;50.988;3.162;2022-11-20T21:52:17;4.57;;;1.50;;
18194;SDS011;9223;50.988;3.162;2022-11-20T21:58:22;6.97;;;1.95;;
18194;SDS011;9223;50.988;3.162;2022-11-20T22:04:26;4.43;;;1.67;;
18194;SDS011;9223;50.988;3.162;2022-11-20T22:10:30;4.15;;;1.63;;
18194;SDS011;9223;50.988;3.162;2022-11-20T22:16:35;3.50;;;2.00;;
18194;SDS011;9223;50.988;3.162;2022-11-20T22:22:38;4.40;;;1.92;;
18194;SDS011;9223;50.988;3.162;2022-11-20T22:28:44;6.95;;;2.05;;
18194;SDS011;9223;50.988;3.162;2022-11-20T22:34:49;6.53;;;1.90;;
18194;SDS011;9223;50.988;3.162;2022-11-20T22:40:53;7.78;;;2.20;;
18194;SDS011;9223;50.988;3.162;2022-11-20T22:46:56;8.15;;;1.65;;
18194;SDS011;9223;50.988;3.162;2022-11-20T22:53:01;4.93;;;1.88;;
18194;SDS011;9223;50.988;3.162;2022-11-20T22:59:05;5.93;;;1.88;;
18194;SDS011;9223;50.988;3.162;2022-11-20T23:05:09;4.55;;;1.48;;
18194;SDS011;9223;50.988;3.162;2022-11-20T23:11:14;3.10;;;0.90;;
18194;SDS011;9223;50.988;3.162;2022-11-20T23:17:18;4.65;;;0.90;;
18194;SDS011;9223;50.988;3.162;2022-11-20T23:23:21;3.55;;;1.35;;
18194;SDS011;9223;50.988;3.162;2022-11-20T23:29:26;3.28;;;1.08;;
18194;SDS011;9223;50.988;3.162;2022-11-20T23:35:30;4.25;;;1.02;;
18194;SDS011;9223;50.988;3.162;2022-11-20T23:41:33;5.00;;;1.08;;
18194;SDS011;9223;50.988;3.162;2022-11-20T23:47:38;2.53;;;0.70;;
18194;SDS011;9223;50.988;3.162;2022-11-20T23:53:41;3.60;;;0.77;;
18194;SDS011;9223;50.988;3.162;2022-11-20T23:59:45;2.08;;;0.60;;
